Terminal Aerodrome Forecast
Issued by NWS Tampa Bay Area, FL

Home | Current Version | Previous Version | Text Only | Print | Product List | Glossary On
Versions: 1 2 3 4 5 6 7 8 9 10 11 12 13 14 15 16 17 18 19 20 21 22 23 24 25 26
000
FTUS42 KTBW 311120
TAFFMY
TAF
KFMY 311120Z 3112/0112 13005KT P6SM VCSH SCT020 SCT100 BKN250
     FM311400 16008KT P6SM SCT025 BKN250
     FM311600 19009KT P6SM VCTS SCT020CB BKN050 BKN250
     FM010300 15004KT P6SM SCT035 BKN250=

USA.gov is the U.S. government's official web portal to all federal, state and local government web resources and services.